Time;durP1;ratioP1;P1;durP2;ratioP2;P2;SDS_P1;SDS_P2;PMS_P1;PMS_P2;Temp;Humidity;BMP_temperature;BMP_pressure;BME280_temperature;BME280_humidity;BME280_pressure;Samples;Min_cycle;Max_cycle;Signal;HPM_P1;HPM_P2
2022/06/18 00:02:20;;;;;;;2.90;2.60;;;23.10;59.90;;;24.01;nan;101095.69;4954235;28;20643;-67
2022/06/18 00:04:48;;;;;;;3.40;3.10;;;23.10;59.90;;;23.97;nan;101092.59;4944954;28;20950;-67
2022/06/18 00:07:22;;;;;;;7.07;2.10;;;23.10;60.10;;;23.97;nan;101087.25;4952242;28;20620;-67
2022/06/18 00:10:04;;;;;;;2.57;2.37;;;23.10;60.30;;;23.95;nan;101096.44;4967841;28;20670;-65
2022/06/18 00:15:31;;;;;;;3.27;2.70;;;23.10;60.70;;;23.96;nan;101077.59;4972804;28;20678;-67
2022/06/18 00:17:58;;;;;;;2.80;2.60;;;23.10;60.50;;;23.89;nan;101079.38;4964261;28;20663;-65
2022/06/18 00:20:30;;;;;;;4.43;2.70;;;23.10;60.80;;;23.88;nan;101077.72;4951598;29;20628;-65
2022/06/18 00:23:01;;;;;;;2.50;2.40;;;23.00;60.90;;;23.85;nan;101083.44;4952474;28;20640;-67
2022/06/18 00:25:38;;;;;;;5.27;2.50;;;23.00;61.00;;;23.77;nan;101072.84;4951792;28;20667;-65
2022/06/18 00:28:20;;;;;;;2.73;2.60;;;22.90;61.20;;;23.75;nan;101073.03;4951359;29;20631;-65
2022/06/18 00:30:49;;;;;;;2.70;2.50;;;22.90;61.30;;;23.73;nan;101071.56;4952053;28;20648;-65
2022/06/18 00:33:18;;;;;;;4.10;2.73;;;22.90;61.60;;;23.72;nan;101069.91;4953875;28;20683;-67
2022/06/18 00:35:47;;;;;;;4.63;2.50;;;22.90;61.60;;;23.69;nan;101072.94;4954518;28;20644;-66
2022/06/18 00:38:30;;;;;;;3.03;2.50;;;22.90;61.80;;;23.67;nan;101064.31;4956469;28;20623;-65
2022/06/18 00:40:59;;;;;;;6.20;2.70;;;22.80;61.80;;;23.59;nan;101062.59;4949563;28;20648;-66
2022/06/18 00:43:40;;;;;;;5.53;2.67;;;22.80;62.20;;;23.52;nan;101058.16;4932480;29;20755;-68
2022/06/18 00:46:31;;;;;;;3.17;2.50;;;22.70;62.70;;;23.46;nan;101058.91;4933288;29;20659;-65
2022/06/18 00:49:49;;;;;;;3.60;2.70;;;22.60;62.90;;;23.45;nan;101051.91;4968532;28;20671;-65
2022/06/18 00:52:35;;;;;;;3.73;2.50;;;22.60;63.00;;;23.46;nan;101056.22;4953262;28;20634;-65
2022/06/18 00:55:19;;;;;;;2.50;2.40;;;22.60;63.30;;;23.39;nan;101056.13;4959226;28;20648;-65
2022/06/18 00:57:56;;;;;;;2.57;2.47;;;22.50;63.50;;;23.35;nan;101048.69;4950624;28;21017;-65
2022/06/18 01:00:44;;;;;;;3.00;2.70;;;22.50;63.70;;;23.35;nan;101052.19;4960981;28;21240;-65
2022/06/18 01:03:34;;;;;;;5.10;2.87;;;22.50;64.00;;;23.34;nan;101052.38;4952416;28;20608;-65
2022/06/18 01:06:11;;;;;;;2.60;2.40;;;22.50;64.00;;;23.35;nan;101052.19;4959367;28;20751;-68
2022/06/18 01:08:42;;;;;;;3.10;2.83;;;22.50;63.90;;;23.38;nan;101049.19;4954313;28;21029;-65
2022/06/18 01:11:19;;;;;;;4.50;2.43;;;22.60;63.60;;;23.39;nan;101052.63;4970680;28;21017;-65
2022/06/18 01:13:47;;;;;;;4.60;2.33;;;22.60;63.60;;;23.29;nan;101057.38;4969473;28;20635;-65
2022/06/18 01:16:16;;;;;;;2.67;2.47;;;22.50;63.90;;;23.22;nan;101045.78;4965015;28;20664;-66
2022/06/18 01:18:44;;;;;;;2.87;2.67;;;22.40;64.30;;;23.09;nan;101041.94;4968010;28;20616;-65
2022/06/18 01:21:37;;;;;;;3.47;2.50;;;22.30;64.80;;;23.06;nan;101041.47;4966992;28;21023;-66
2022/06/18 01:24:32;;;;;;;3.60;3.10;;;22.30;65.20;;;23.01;nan;101034.03;4958456;28;21202;-65
2022/06/18 01:27:00;;;;;;;2.70;2.20;;;22.20;65.40;;;22.99;nan;101033.38;4959657;28;20667;-66
2022/06/18 01:29:27;;;;;;;4.47;2.87;;;22.20;65.80;;;22.96;nan;101027.59;4958139;28;21066;-65
2022/06/18 01:31:55;;;;;;;2.93;2.60;;;22.20;66.10;;;22.98;nan;101023.75;4963799;28;20708;-66
2022/06/18 01:34:22;;;;;;;2.90;2.70;;;22.20;66.30;;;22.99;nan;101035.22;4958504;28;20635;-65
2022/06/18 01:36:51;;;;;;;3.80;2.90;;;22.20;66.20;;;22.96;nan;101022.25;4975671;28;20631;-65
2022/06/18 01:39:24;;;;;;;3.20;2.90;;;22.20;66.50;;;22.99;nan;101025.41;4964530;28;21054;-65
2022/06/18 01:42:02;;;;;;;4.70;2.57;;;22.20;66.40;;;23.02;nan;101024.22;4961609;28;20632;-65
2022/06/18 01:44:50;;;;;;;2.60;2.50;;;22.20;66.40;;;23.00;nan;101023.56;4958290;28;20635;-67
2022/06/18 01:47:47;;;;;;;2.80;2.57;;;22.20;66.50;;;23.02;nan;101025.03;4962535;28;20632;-65
2022/06/18 01:50:29;;;;;;;2.70;2.50;;;22.20;66.50;;;23.00;nan;101024.38;4956949;28;20671;-66
2022/06/18 01:53:09;;;;;;;2.37;2.20;;;22.20;66.70;;;22.97;nan;101027.44;4958168;28;20636;-65
2022/06/18 01:55:43;;;;;;;5.33;3.07;;;22.20;67.10;;;22.93;nan;101031.47;4957944;28;20685;-66
2022/06/18 01:58:35;;;;;;;6.93;2.30;;;22.20;67.30;;;22.85;nan;101020.06;4955404;28;20639;-65
2022/06/18 02:01:07;;;;;;;3.37;2.70;;;22.10;67.50;;;22.78;nan;101022.59;4956087;28;20612;-66
2022/06/18 02:03:36;;;;;;;3.70;2.17;;;22.00;67.90;;;22.73;nan;101026.78;4958173;28;20615;-65
2022/06/18 02:06:05;;;;;;;2.37;2.27;;;21.90;68.40;;;22.59;nan;101028.44;4961920;28;20684;-65
2022/06/18 02:08:33;;;;;;;2.77;2.57;;;21.80;69.30;;;22.45;nan;101036.28;4978175;28;20623;-65
2022/06/18 02:11:04;;;;;;;8.97;2.80;;;21.70;70.10;;;22.39;nan;101025.38;4977442;28;21187;-65
2022/06/18 02:13:39;;;;;;;2.97;2.77;;;21.60;70.40;;;22.36;nan;101027.53;4975814;28;20639;-65
2022/06/18 02:16:13;;;;;;;2.93;2.50;;;21.60;70.90;;;22.31;nan;101027.25;4973753;28;20700;-66
2022/06/18 02:18:41;;;;;;;4.30;3.17;;;21.50;71.40;;;22.32;nan;101029.72;4969228;28;20651;-66
2022/06/18 02:21:12;;;;;;;2.87;2.63;;;21.50;71.60;;;22.30;nan;101025.59;4957984;28;20659;-65
2022/06/18 02:23:39;;;;;;;2.63;2.43;;;21.50;71.70;;;22.22;nan;101028.31;4973692;28;20635;-65
2022/06/18 02:26:07;;;;;;;2.47;2.37;;;21.50;72.10;;;22.22;nan;101033.63;4958035;28;20659;-65
2022/06/18 02:28:42;;;;;;;2.57;2.40;;;21.40;72.40;;;22.17;nan;101023.53;4972173;28;21054;-65
2022/06/18 02:31:25;;;;;;;5.00;2.70;;;21.40;72.80;;;22.17;nan;101014.72;4966522;28;20627;-65
2022/06/18 02:33:58;;;;;;;5.50;2.93;;;21.40;72.70;;;22.10;nan;101019.09;4972113;28;21000;-65
2022/06/18 02:36:35;;;;;;;3.20;2.87;;;21.30;72.70;;;21.92;nan;101011.38;4969001;28;20661;-64
2022/06/18 02:39:08;;;;;;;5.03;2.70;;;21.20;73.00;;;21.86;nan;101016.56;4950497;28;20619;-65
2022/06/18 02:41:40;;;;;;;2.87;2.70;;;21.10;73.50;;;21.85;nan;101013.06;4935764;29;20989;-65
2022/06/18 02:44:07;;;;;;;2.77;2.67;;;21.10;73.70;;;21.87;nan;101020.88;4936515;29;20632;-65
2022/06/18 02:46:34;;;;;;;3.67;2.80;;;21.10;73.50;;;21.96;nan;101022.47;4983572;28;20704;-65
2022/06/18 02:49:03;;;;;;;2.90;2.70;;;21.20;73.50;;;21.96;nan;101019.81;4946101;28;20668;-65
2022/06/18 02:51:33;;;;;;;3.20;2.90;;;21.20;73.40;;;22.03;nan;101020.78;4954869;28;20628;-65
2022/06/18 02:54:00;;;;;;;3.07;2.87;;;21.20;73.30;;;22.03;nan;101018.13;4968580;28;20636;-65
2022/06/18 02:56:27;;;;;;;3.00;2.80;;;21.30;73.60;;;22.02;nan;101013.84;4959740;28;21044;-66
2022/06/18 02:58:55;;;;;;;4.73;2.97;;;21.30;73.80;;;22.02;nan;101019.16;4960341;28;20710;-65
2022/06/18 03:01:25;;;;;;;5.73;3.27;;;21.20;73.80;;;22.02;nan;101019.16;4935887;28;20633;-66
2022/06/18 03:03:59;;;;;;;4.13;2.67;;;21.20;73.90;;;22.02;nan;101019.16;4954830;28;20647;-66
2022/06/18 03:06:30;;;;;;;2.90;2.70;;;21.20;74.10;;;21.99;nan;101019.47;4947181;28;21133;-65
2022/06/18 03:08:57;;;;;;;2.93;2.60;;;21.20;74.10;;;21.98;nan;101021.31;4968201;28;20660;-66
2022/06/18 03:14:16;;;;;;;2.33;2.20;;;21.10;74.50;;;21.84;nan;101014.09;4973721;28;20626;-65
2022/06/18 03:16:44;;;;;;;3.13;2.83;;;21.10;74.90;;;21.67;nan;100985.25;4972196;28;20631;-66
2022/06/18 03:19:30;;;;;;;2.80;2.60;;;20.90;75.30;;;21.65;nan;101017.13;4973047;28;20634;-65
2022/06/18 03:22:09;;;;;;;2.73;2.53;;;20.90;75.70;;;21.50;nan;101016.19;4960150;28;20640;-66
2022/06/18 03:24:36;;;;;;;3.40;2.70;;;20.70;76.40;;;21.44;nan;101014.22;4952513;29;20698;-66
2022/06/18 03:27:03;;;;;;;2.97;2.70;;;20.70;77.00;;;21.51;nan;101018.66;4963975;28;20635;-66
2022/06/18 03:29:30;;;;;;;2.80;2.60;;;20.70;77.10;;;21.54;nan;101013.03;4972868;28;21272;-65
2022/06/18 03:31:57;;;;;;;3.93;2.87;;;20.80;77.10;;;21.57;nan;101015.31;4962911;28;20659;-66
2022/06/18 03:34:24;;;;;;;5.60;2.70;;;20.80;77.00;;;21.51;nan;101010.69;4954958;28;20700;-66
2022/06/18 03:36:51;;;;;;;3.90;3.00;;;20.80;77.40;;;21.51;nan;101020.47;4970783;28;20635;-66
2022/06/18 03:39:18;;;;;;;6.77;2.80;;;20.80;77.60;;;21.58;nan;101018.81;4972521;28;20662;-66
2022/06/18 03:41:45;;;;;;;2.70;2.50;;;20.90;77.60;;;21.60;nan;101007.03;4961558;28;20659;-66
2022/06/18 03:44:13;;;;;;;7.50;3.20;;;20.90;78.20;;;21.66;nan;101018.78;4968071;28;20643;-65
2022/06/18 03:46:43;;;;;;;2.90;2.70;;;21.00;77.50;;;21.78;nan;101032.50;4972208;28;20729;-66
2022/06/18 03:49:24;;;;;;;2.73;2.57;;;21.10;77.20;;;21.81;nan;101016.22;4969682;28;20679;-66
2022/06/18 03:51:53;;;;;;;4.53;2.90;;;21.10;76.80;;;21.88;nan;101019.88;4955850;28;20637;-65
2022/06/18 03:54:20;;;;;;;3.10;2.80;;;21.20;76.70;;;21.93;nan;101021.03;4963623;28;20640;-66
2022/06/18 03:56:48;;;;;;;3.83;2.73;;;21.20;76.30;;;22.06;nan;101029.22;4955764;28;20644;-66
2022/06/18 03:59:16;;;;;;;2.90;2.47;;;21.40;75.80;;;22.12;nan;101033.03;4958399;28;20643;-66
2022/06/18 04:01:43;;;;;;;3.10;2.90;;;21.40;75.30;;;22.21;nan;101032.78;4955646;28;20646;-65
2022/06/18 04:04:12;;;;;;;2.63;2.40;;;21.50;75.20;;;22.20;nan;101027.66;4955231;28;20636;-66
2022/06/18 04:06:40;;;;;;;2.87;2.60;;;21.50;75.10;;;22.13;nan;101027.53;4951822;28;20670;-65
2022/06/18 04:09:07;;;;;;;3.23;3.03;;;21.40;75.50;;;22.23;nan;101027.31;4952260;28;20628;-66
2022/06/18 04:11:35;;;;;;;4.73;3.20;;;21.60;75.30;;;22.35;nan;101031.22;4969901;28;20631;-66
2022/06/18 04:14:03;;;;;;;3.20;2.73;;;21.70;74.90;;;22.41;nan;101035.81;4970442;28;21051;-67
2022/06/18 04:16:31;;;;;;;3.37;3.10;;;21.70;74.70;;;22.36;nan;101023.06;4971074;28;20662;-66
2022/06/18 04:18:58;;;;;;;4.10;2.53;;;21.70;74.70;;;22.45;nan;101031.81;4971108;28;20681;-66
2022/06/18 04:21:25;;;;;;;2.63;2.43;;;21.80;74.70;;;22.48;nan;101036.78;4971205;28;21032;-66
2022/06/18 04:23:52;;;;;;;2.97;2.77;;;21.80;74.50;;;22.37;nan;101037.19;4969140;28;21037;-66
2022/06/18 04:26:19;;;;;;;2.90;2.70;;;21.70;74.80;;;22.45;nan;101031.81;4952831;28;21240;-66
2022/06/18 04:28:46;;;;;;;3.63;2.70;;;21.80;74.60;;;22.53;nan;101037.06;4960634;28;20642;-66
2022/06/18 04:31:14;;;;;;;3.40;2.90;;;21.90;74.50;;;22.65;nan;101038.34;4969940;28;20662;-66
2022/06/18 04:33:42;;;;;;;4.40;2.77;;;22.00;74.20;;;22.79;nan;101034.06;4964535;28;20629;-66
2022/06/18 04:36:32;;;;;;;8.37;2.93;;;22.10;73.60;;;22.99;nan;101036.06;4953515;28;20683;-66
2022/06/18 04:39:00;;;;;;;3.93;3.03;;;22.30;73.10;;;23.20;nan;101035.34;4971273;28;20969;-66
2022/06/18 04:41:27;;;;;;;4.50;2.17;;;22.60;72.10;;;23.36;nan;101032.53;4972190;28;20615;-65
2022/06/18 04:43:55;;;;;;;4.60;3.37;;;22.70;71.50;;;23.54;nan;101035.66;4969912;28;20646;-65
2022/06/18 04:46:22;;;;;;;2.83;2.73;;;23.00;70.60;;;23.62;nan;101035.56;4972167;28;21312;-66
2022/06/18 04:48:49;;;;;;;6.00;2.70;;;23.00;70.80;;;23.62;nan;101043.56;4964635;28;20648;-64
2022/06/18 04:51:16;;;;;;;3.10;2.93;;;23.10;70.00;;;23.51;nan;101036.00;4952433;28;20668;-66
2022/06/18 04:53:43;;;;;;;3.27;2.87;;;23.00;71.10;;;23.54;nan;101038.31;4953352;28;21207;-66
2022/06/18 04:56:11;;;;;;;2.57;2.47;;;22.90;70.60;;;23.61;nan;101035.75;4946625;28;20660;-67
2022/06/18 04:58:38;;;;;;;3.00;2.80;;;23.00;70.50;;;23.67;nan;101029.69;4952458;28;20631;-65
2022/06/18 05:01:06;;;;;;;3.47;2.93;;;23.10;69.80;;;23.85;nan;101022.94;4968100;28;21219;-66
2022/06/18 05:03:33;;;;;;;4.43;3.03;;;23.30;69.40;;;23.67;nan;101029.69;4932652;29;21046;-66
2022/06/18 05:06:01;;;;;;;2.83;2.73;;;23.20;69.50;;;23.84;nan;101025.78;4935922;28;21047;-66
2022/06/18 05:08:27;;;;;;;5.23;2.93;;;23.30;69.90;;;24.02;nan;101034.22;4951548;28;20717;-66
2022/06/18 05:10:55;;;;;;;2.73;2.50;;;23.50;68.80;;;23.74;nan;101030.59;4955675;28;20744;-66
2022/06/18 05:13:22;;;;;;;2.60;2.50;;;23.20;69.40;;;23.66;nan;101030.72;4938065;28;20627;-66
2022/06/18 05:15:53;;;;;;;4.10;2.70;;;23.10;69.90;;;23.63;nan;101033.72;4970872;28;20651;-66
2022/06/18 05:18:21;;;;;;;3.10;2.80;;;23.30;69.30;;;23.84;nan;101028.47;4969820;28;21168;-67
2022/06/18 05:20:51;;;;;;;3.57;2.70;;;23.30;69.80;;;23.86;nan;101023.78;4972554;28;20627;-66
2022/06/18 05:23:19;;;;;;;2.63;2.43;;;23.30;69.70;;;23.80;nan;101019.19;4961021;28;20692;-66
2022/06/18 05:25:48;;;;;;;3.00;2.70;;;23.30;69.50;;;23.94;nan;101015.66;4951409;28;20687;-67
2022/06/18 05:28:15;;;;;;;3.17;2.57;;;23.40;69.60;;;24.09;nan;101019.16;4950851;28;21346;-66
2022/06/18 05:30:43;;;;;;;3.10;2.80;;;23.70;68.70;;;24.36;nan;101014.94;4965866;28;20672;-66
2022/06/18 05:33:10;;;;;;;2.97;2.77;;;23.80;68.20;;;24.34;nan;101007.09;4951810;28;20611;-66
2022/06/18 05:35:40;;;;;;;3.93;2.77;;;23.90;68.20;;;24.21;nan;101007.00;4950608;28;20664;-66
2022/06/18 05:38:14;;;;;;;2.97;2.77;;;23.80;68.50;;;24.39;nan;100998.53;4952179;28;20632;-67
2022/06/18 05:40:41;;;;;;;3.30;3.00;;;24.00;68.10;;;24.53;nan;100997.66;4932543;29;20632;-66
2022/06/18 05:43:08;;;;;;;2.97;2.80;;;23.90;68.20;;;24.71;nan;100997.16;4955586;28;20650;-66
2022/06/18 05:45:35;;;;;;;6.10;3.10;;;24.20;67.80;;;25.21;nan;100996.97;4969727;28;20675;-66
2022/06/18 05:48:10;;;;;;;3.00;2.80;;;24.60;66.90;;;25.60;nan;100997.19;4968747;28;21226;-66
2022/06/18 05:50:37;;;;;;;3.27;3.07;;;25.10;65.20;;;25.91;nan;100992.19;4970421;28;20671;-66
2022/06/18 05:53:05;;;;;;;2.70;2.50;;;25.40;64.80;;;26.21;nan;101000.72;4970017;28;20639;-67
2022/06/18 05:55:32;;;;;;;4.63;3.03;;;25.70;63.40;;;26.71;nan;101005.47;4961310;28;20656;-66
2022/06/18 05:57:59;;;;;;;3.87;3.50;;;26.20;62.20;;;27.05;nan;101001.78;4969243;28;20635;-67
2022/06/18 06:00:31;;;;;;;3.03;2.73;;;26.60;61.60;;;27.17;nan;101001.97;4952709;28;20632;-67
2022/06/18 06:02:58;;;;;;;3.00;2.80;;;26.80;60.70;;;27.68;nan;101006.38;4966837;28;20634;-69
2022/06/18 06:05:26;;;;;;;2.90;2.70;;;27.20;60.40;;;27.95;nan;101003.56;4960077;28;20656;-66
2022/06/18 06:07:53;;;;;;;3.20;2.93;;;27.40;59.40;;;28.02;nan;101009.75;4954734;28;20639;-66
2022/06/18 06:13:17;;;;;;;3.07;2.60;;;27.90;58.60;;;28.83;nan;101024.09;4953193;29;20628;-66
2022/06/18 06:15:45;;;;;;;3.40;3.10;;;28.30;58.00;;;29.26;nan;101013.38;4947585;28;20669;-66
2022/06/18 06:18:15;;;;;;;3.00;2.80;;;28.90;56.50;;;29.56;nan;101009.69;4954960;28;20620;-66
2022/06/18 06:20:49;;;;;;;3.03;2.83;;;29.10;55.70;;;29.74;nan;101009.72;4954120;28;20640;-67
2022/06/18 06:23:16;;;;;;;3.50;3.20;;;29.30;55.00;;;29.98;nan;100997.19;4954774;28;21227;-66
2022/06/18 06:25:46;;;;;;;2.40;2.20;;;29.40;54.40;;;30.40;nan;101000.75;4963888;28;20666;-68
2022/06/18 06:28:24;;;;;;;2.67;2.47;;;29.90;53.70;;;30.11;nan;100999.72;4972977;28;20646;-66
2022/06/18 06:30:53;;;;;;;3.73;2.97;;;29.90;53.00;;;30.13;nan;101000.31;4956425;28;21048;-67
2022/06/18 06:33:20;;;;;;;3.80;3.50;;;29.80;52.90;;;30.76;nan;100999.72;4954422;28;20628;-67
2022/06/18 06:35:48;;;;;;;5.60;2.90;;;30.20;52.40;;;31.43;nan;101004.56;4953574;28;20655;-69
2022/06/18 06:38:15;;;;;;;3.07;2.70;;;31.00;51.50;;;31.76;nan;101011.97;4967245;28;20662;-67
2022/06/18 06:40:44;;;;;;;3.20;2.40;;;31.30;50.80;;;32.00;nan;101000.88;4973695;28;20633;-66
2022/06/18 06:43:14;;;;;;;3.13;2.90;;;31.50;50.80;;;32.59;nan;101012.19;4962181;28;21426;-67
2022/06/18 06:45:41;;;;;;;2.80;2.60;;;32.00;50.10;;;32.97;nan;101009.53;4969516;28;20670;-66
2022/06/18 06:48:09;;;;;;;4.10;3.07;;;32.40;49.30;;;33.39;nan;101007.97;4973737;28;20634;-69
2022/06/18 06:50:37;;;;;;;2.70;2.60;;;32.80;48.80;;;33.74;nan;101002.22;4958907;28;20672;-67
2022/06/18 06:53:04;;;;;;;2.83;2.73;;;33.10;48.30;;;34.43;nan;101005.94;4942008;28;20633;-68
2022/06/18 06:58:21;;;;;;;2.87;2.67;;;34.50;46.40;;;35.90;nan;101008.44;4960154;28;20635;-67
2022/06/18 07:00:52;;;;;;;3.07;2.87;;;35.40;45.60;;;36.17;nan;101005.53;4972439;28;20798;-68
2022/06/18 07:03:25;;;;;;;3.27;3.07;;;35.60;45.20;;;36.52;nan;101011.03;4972637;28;20649;-68
2022/06/18 07:05:52;;;;;;;3.20;2.63;;;35.70;45.00;;;36.88;nan;101012.66;4950201;28;20671;-67
2022/06/18 07:08:20;;;;;;;5.30;2.70;;;36.20;44.50;;;37.80;nan;101017.50;4950575;28;20636;-67
2022/06/18 07:10:49;;;;;;;2.93;2.73;;;36.90;44.00;;;38.02;nan;101004.31;4945860;29;20680;-68
2022/06/18 07:13:18;;;;;;;2.90;2.80;;;37.30;43.20;;;36.91;nan;101003.13;4959004;28;20646;-67
2022/06/18 07:15:46;;;;;;;6.80;2.87;;;36.30;43.60;;;37.61;nan;101008.31;4954085;28;20793;-67
2022/06/18 07:18:19;;;;;;;2.80;2.70;;;36.70;43.90;;;37.79;nan;100999.56;4940266;28;20640;-67
2022/06/18 07:20:46;;;;;;;2.87;2.77;;;36.80;44.00;;;38.02;nan;100998.03;4952193;28;20647;-67
2022/06/18 07:23:13;;;;;;;3.20;3.00;;;37.20;43.40;;;38.37;nan;100989.66;4945194;28;20623;-67
2022/06/18 07:25:41;;;;;;;2.70;2.60;;;37.60;42.90;;;37.85;nan;100997.63;4952819;28;20725;-67
2022/06/18 07:28:09;;;;;;;3.10;2.80;;;37.40;42.10;;;37.49;nan;100999.69;4971746;28;20642;-66
2022/06/18 07:30:37;;;;;;;2.67;2.57;;;36.60;42.90;;;37.98;nan;100991.53;4960300;28;20680;-68
2022/06/18 07:33:05;;;;;;;2.87;2.67;;;36.90;42.80;;;36.59;nan;100990.63;4952608;28;20647;-68
2022/06/18 07:35:38;;;;;;;3.10;2.77;;;35.60;43.60;;;37.75;nan;100989.47;4953008;28;20644;-66
2022/06/18 07:38:06;;;;;;;3.10;2.80;;;36.60;43.40;;;37.88;nan;100978.00;4952721;28;20645;-67
2022/06/18 07:40:44;;;;;;;2.63;2.53;;;36.90;42.10;;;37.58;nan;100981.69;4953045;28;20632;-67
2022/06/18 07:43:19;;;;;;;2.70;2.60;;;36.90;42.30;;;37.64;nan;100969.66;4956399;28;20631;-67
2022/06/18 07:45:46;;;;;;;2.93;2.83;;;36.60;42.80;;;36.65;nan;100960.72;4954675;28;21259;-68
2022/06/18 07:48:14;;;;;;;3.20;3.00;;;35.70;43.40;;;36.20;nan;100965.06;4939745;28;20640;-67
2022/06/18 07:50:46;;;;;;;7.00;2.53;;;35.00;43.90;;;36.55;nan;100966.97;4944588;28;20668;-66
2022/06/18 07:53:20;;;;;;;3.20;3.00;;;35.40;43.90;;;36.43;nan;100958.28;4969111;28;20657;-68
2022/06/18 07:55:49;;;;;;;2.93;2.73;;;35.40;43.50;;;36.54;nan;100971.63;4964347;28;20656;-68
2022/06/18 07:58:16;;;;;;;3.63;3.17;;;35.50;44.00;;;36.41;nan;100963.97;4935136;29;21014;-66
2022/06/18 08:00:44;;;;;;;3.00;2.83;;;35.30;44.10;;;36.03;nan;100950.13;4970407;28;20635;-67
2022/06/18 08:03:14;;;;;;;3.60;2.90;;;34.90;44.80;;;35.85;nan;100951.41;4954869;28;20640;-67
2022/06/18 08:05:43;;;;;;;3.13;2.70;;;34.70;44.70;;;35.84;nan;100955.22;4942525;28;20668;-67
2022/06/18 08:08:12;;;;;;;3.00;2.80;;;34.70;44.70;;;34.60;nan;100957.03;4933402;29;20589;-67
2022/06/18 08:10:59;;;;;;;2.70;2.60;;;33.90;44.50;;;34.93;nan;100954.81;4951613;28;20683;-68
2022/06/18 08:13:26;;;;;;;3.60;3.30;;;33.70;45.30;;;34.55;nan;100955.09;4947494;28;20620;-65
2022/06/18 08:15:53;;;;;;;2.90;2.70;;;33.60;45.40;;;35.04;nan;100953.00;4960997;28;20674;-67
2022/06/18 08:18:20;;;;;;;3.30;3.10;;;33.90;45.60;;;34.92;nan;100944.25;4965407;28;20636;-64
2022/06/18 08:21:01;;;;;;;3.13;2.90;;;34.00;45.40;;;34.82;nan;100946.91;4970380;28;20618;-67
2022/06/18 08:23:28;;;;;;;2.70;2.60;;;33.80;45.40;;;34.74;nan;100934.63;4969251;28;20639;-68
2022/06/18 08:25:56;;;;;;;2.90;2.80;;;33.70;46.00;;;34.60;nan;100936.19;4957397;28;21026;-68
2022/06/18 08:28:23;;;;;;;3.13;2.93;;;33.60;45.80;;;34.34;nan;100937.03;4966562;28;20643;-67
2022/06/18 08:30:50;;;;;;;3.33;3.03;;;33.40;45.90;;;33.75;nan;100936.22;4972404;28;20694;-67
2022/06/18 08:33:18;;;;;;;3.50;3.10;;;32.90;47.00;;;33.98;nan;100933.19;4954494;28;20639;-66
2022/06/18 08:35:45;;;;;;;2.90;2.80;;;33.00;47.20;;;33.84;nan;100929.25;4953146;28;20655;-66
2022/06/18 08:38:14;;;;;;;3.67;3.37;;;32.80;47.70;;;33.93;nan;100935.00;4952207;28;20672;-67
2022/06/18 08:40:47;;;;;;;4.00;3.80;;;33.10;47.60;;;34.04;nan;100918.66;4967251;28;20632;-67
2022/06/18 08:43:34;;;;;;;3.33;3.03;;;33.10;47.80;;;33.85;nan;100920.06;4952977;28;20636;-68
2022/06/18 08:46:31;;;;;;;3.53;3.33;;;33.10;47.20;;;34.16;nan;100919.28;4952204;28;20671;-67
2022/06/18 08:49:09;;;;;;;3.40;3.20;;;33.20;47.50;;;34.46;nan;100916.00;4957777;28;20643;-68
2022/06/18 08:52:09;;;;;;;5.40;3.03;;;33.60;47.70;;;34.62;nan;100904.22;4970208;28;20993;-68
2022/06/18 08:55:11;;;;;;;3.50;3.30;;;33.80;47.10;;;34.94;nan;100912.25;4969117;28;20628;-67
2022/06/18 08:57:51;;;;;;;4.17;2.70;;;34.10;46.80;;;35.26;nan;100910.25;4942638;28;20651;-68
2022/06/18 09:00:41;;;;;;;5.97;3.07;;;34.40;46.70;;;34.82;nan;100912.44;4950912;29;20631;-67
2022/06/18 09:03:39;;;;;;;3.20;3.00;;;34.00;46.80;;;34.89;nan;100910.31;4952077;28;20667;-67
2022/06/18 09:06:34;;;;;;;3.70;3.50;;;34.10;47.00;;;35.10;nan;100903.13;4951591;28;20636;-67
2022/06/18 09:09:26;;;;;;;3.13;2.90;;;34.20;47.00;;;34.85;nan;100906.50;4951371;28;20630;-67
2022/06/18 09:12:25;;;;;;;8.43;3.60;;;34.10;47.30;;;34.43;nan;100896.75;4948822;29;20691;-67
2022/06/18 09:15:10;;;;;;;3.70;3.40;;;33.60;47.50;;;34.61;nan;100899.06;4947598;29;20637;-66
2022/06/18 09:17:49;;;;;;;3.43;3.23;;;33.70;47.60;;;34.43;nan;100894.03;4949760;28;21222;-68
2022/06/18 09:20:32;;;;;;;2.80;2.70;;;33.50;47.80;;;34.19;nan;100893.59;4964467;28;21011;-66
2022/06/18 09:23:44;;;;;;;6.53;3.40;;;33.40;48.10;;;33.98;nan;100880.94;4939175;29;21382;-67
2022/06/18 09:26:20;;;;;;;2.90;2.80;;;33.20;48.30;;;34.06;nan;100880.47;4948295;29;20664;-67
2022/06/18 09:29:01;;;;;;;3.23;3.07;;;33.20;48.00;;;33.99;nan;100874.44;4950216;28;21212;-67
2022/06/18 09:31:51;;;;;;;3.27;3.17;;;33.00;47.50;;;34.02;nan;100879.38;4946022;29;20652;-67
2022/06/18 09:34:24;;;;;;;3.10;3.00;;;33.10;47.90;;;33.71;nan;100880.16;4966492;28;20688;-65
2022/06/18 09:36:57;;;;;;;4.43;2.83;;;32.90;47.70;;;34.20;nan;100873.56;4948087;28;20627;-67
2022/06/18 09:39:34;;;;;;;4.00;3.30;;;33.30;47.70;;;34.44;nan;100872.09;4940406;28;20621;-66
2022/06/18 09:42:19;;;;;;;4.23;3.40;;;33.60;47.30;;;34.73;nan;100872.56;4944840;28;20631;-66
2022/06/18 09:45:07;;;;;;;2.80;2.70;;;33.80;46.50;;;35.01;nan;100870.28;4934840;29;20669;-64
2022/06/18 09:47:46;;;;;;;4.30;3.23;;;34.10;46.10;;;35.19;nan;100871.69;4951331;28;20866;-67
2022/06/18 09:50:27;;;;;;;3.20;3.10;;;34.40;45.60;;;34.89;nan;100860.72;4954940;28;20628;-67
2022/06/18 09:53:35;;;;;;;3.00;2.80;;;34.10;45.00;;;35.07;nan;100866.53;4946085;28;21208;-67
2022/06/18 09:56:09;;;;;;;3.20;3.00;;;34.10;45.10;;;35.17;nan;100862.19;4948840;28;20680;-67
2022/06/18 09:58:42;;;;;;;3.57;3.27;;;34.30;44.40;;;35.02;nan;100863.78;4954079;28;20632;-68
2022/06/18 10:01:19;;;;;;;2.70;2.50;;;34.20;45.00;;;35.06;nan;100861.34;4970550;28;21131;-66
2022/06/18 10:06:57;;;;;;;2.60;2.40;;;34.10;44.40;;;35.07;nan;100858.38;4948043;29;20660;-67
2022/06/18 10:09:54;;;;;;;2.47;2.37;;;34.10;44.10;;;35.23;nan;100852.97;4952723;28;21168;-69
2022/06/18 10:12:31;;;;;;;3.73;2.80;;;34.40;43.70;;;34.63;nan;100854.34;4965476;28;20683;-66
2022/06/18 10:15:03;;;;;;;2.50;2.30;;;33.90;44.00;;;34.82;nan;100852.81;4945144;28;21030;-67
2022/06/18 10:17:58;;;;;;;2.83;2.73;;;33.90;44.30;;;34.62;nan;100843.78;4952456;28;20632;-67
2022/06/18 10:20:58;;;;;;;2.23;2.20;;;33.80;44.60;;;34.53;nan;100851.59;4937965;29;20632;-66
2022/06/18 10:24:23;;;;;;;2.40;2.30;;;33.80;44.20;;;34.28;nan;100841.41;4936584;29;20680;-66
2022/06/18 10:27:02;;;;;;;2.77;2.30;;;33.50;44.40;;;34.35;nan;100825.69;4931872;28;20663;-66
2022/06/18 10:29:56;;;;;;;2.73;2.63;;;33.50;44.80;;;34.20;nan;100838.34;4938286;28;20648;-66
2022/06/18 10:32:45;;;;;;;3.27;2.20;;;33.50;44.70;;;34.27;nan;100833.50;4936786;29;20672;-66
2022/06/18 10:35:25;;;;;;;3.23;2.97;;;33.40;44.60;;;34.46;nan;100829.28;4945114;29;21024;-64
2022/06/18 10:38:36;;;;;;;9.10;7.97;;;33.60;45.00;;;34.35;nan;100822.22;4953750;28;20669;-66
2022/06/18 10:41:14;;;;;;;4.00;3.70;;;33.40;45.10;;;34.35;nan;100817.59;4954702;28;20639;-67
2022/06/18 10:44:10;;;;;;;2.60;2.50;;;33.50;45.20;;;34.36;nan;100807.56;4954815;28;20635;-66
2022/06/18 10:46:40;;;;;;;2.40;2.30;;;33.50;45.20;;;34.31;nan;100805.63;4942795;28;20667;-66
2022/06/18 10:49:09;;;;;;;2.70;2.60;;;33.40;44.90;;;34.38;nan;100798.09;4945942;29;20644;-66
2022/06/18 10:51:48;;;;;;;2.67;2.50;;;33.40;44.70;;;34.64;nan;100800.97;4958054;28;21099;-66
2022/06/18 10:54:16;;;;;;;7.50;2.67;;;33.70;44.90;;;34.67;nan;100797.75;4940050;28;20651;-66
2022/06/18 10:56:57;;;;;;;2.50;2.40;;;33.80;45.20;;;34.88;nan;100792.13;4961286;28;20644;-64
2022/06/18 10:59:39;;;;;;;3.17;2.97;;;34.00;44.80;;;35.03;nan;100794.09;4951471;28;20620;-66
2022/06/18 11:02:09;;;;;;;3.00;2.80;;;34.10;45.10;;;34.99;nan;100788.38;4949325;28;21199;-66
2022/06/18 11:04:36;;;;;;;2.80;2.70;;;34.10;44.90;;;34.98;nan;100783.19;4938600;29;20632;-66
2022/06/18 11:07:09;;;;;;;6.30;3.20;;;34.10;45.20;;;34.74;nan;100782.03;4950265;28;20633;-67
2022/06/18 11:09:43;;;;;;;5.23;3.27;;;33.80;45.60;;;34.77;nan;100784.22;4950251;28;20986;-66